Time;durP1;ratioP1;P1;durP2;ratioP2;P2;SDS_P1;SDS_P2;PMS_P1;PMS_P2;Temp;Humidity;BMP_temperature;BMP_pressure;BME280_temperature;BME280_humidity;BME280_pressure;Samples;Min_cycle;Max_cycle;Signal;HPM_P1;HPM_P2
2022/11/21 00:00:22;;;;;;;0.10;0.10;;;;;;;;;;6123183;23;20022;-69
2022/11/21 00:02:51;;;;;;;1.35;0.45;;;;;;;;;;6122056;23;20034;-69
2022/11/21 00:05:20;;;;;;;0.43;0.43;;;;;;;;;;6123611;23;20489;-69
2022/11/21 00:07:48;;;;;;;0.10;0.10;;;;;;;;;;6124064;23;20104;-70
2022/11/21 00:10:17;;;;;;;0.20;0.20;;;;;;;;;;6123535;23;20077;-69
2022/11/21 00:12:45;;;;;;;0.57;0.22;;;;;;;;;;6124415;23;20031;-69
2022/11/21 00:15:13;;;;;;;0.17;0.17;;;;;;;;;;6124322;23;20041;-71
2022/11/21 00:17:41;;;;;;;0.10;0.10;;;;;;;;;;6123180;23;20017;-71
2022/11/21 00:20:12;;;;;;;0.20;0.20;;;;;;;;;;6123305;23;20097;-71
2022/11/21 00:22:40;;;;;;;0.17;0.17;;;;;;;;;;6123111;23;20021;-71
2022/11/21 00:25:09;;;;;;;0.10;0.10;;;;;;;;;;6124749;23;20022;-69
2022/11/21 00:27:37;;;;;;;0.10;0.10;;;;;;;;;;6123744;23;20026;-69
2022/11/21 00:30:07;;;;;;;6.50;0.32;;;;;;;;;;6123505;23;20105;-69
2022/11/21 00:32:35;;;;;;;0.10;0.10;;;;;;;;;;6122615;23;20128;-69
2022/11/21 00:35:04;;;;;;;0.10;0.10;;;;;;;;;;6124216;23;20034;-69
2022/11/21 00:37:34;;;;;;;0.20;0.20;;;;;;;;;;6123367;23;20022;-69
2022/11/21 00:40:03;;;;;;;0.10;0.10;;;;;;;;;;6123241;23;20056;-69
2022/11/21 00:42:31;;;;;;;0.10;0.10;;;;;;;;;;6123547;23;20036;-69
2022/11/21 00:45:00;;;;;;;0.15;0.15;;;;;;;;;;6124504;23;20343;-69
2022/11/21 00:47:28;;;;;;;0.10;0.10;;;;;;;;;;6123190;23;20351;-68
2022/11/21 00:49:57;;;;;;;0.10;0.10;;;;;;;;;;6123105;23;20096;-69
2022/11/21 00:52:25;;;;;;;0.10;0.10;;;;;;;;;;6123774;23;20024;-69
2022/11/21 00:54:55;;;;;;;0.10;0.10;;;;;;;;;;6123915;23;20026;-69
2022/11/21 00:57:23;;;;;;;0.10;0.10;;;;;;;;;;6123344;23;20040;-69
2022/11/21 00:59:52;;;;;;;0.20;0.20;;;;;;;;;;6122143;23;20018;-69
2022/11/21 01:02:20;;;;;;;0.10;0.10;;;;;;;;;;6123020;23;20033;-68
2022/11/21 01:04:49;;;;;;;0.90;0.30;;;;;;;;;;6123127;23;20030;-69
2022/11/21 01:07:17;;;;;;;0.10;0.10;;;;;;;;;;6124100;23;20096;-68
2022/11/21 01:09:46;;;;;;;0.10;0.10;;;;;;;;;;6122996;23;20061;-69
2022/11/21 01:12:15;;;;;;;0.10;0.10;;;;;;;;;;6122334;23;20028;-69
2022/11/21 01:14:44;;;;;;;0.20;0.20;;;;;;;;;;6122333;23;20352;-69
2022/11/21 01:17:12;;;;;;;0.10;0.10;;;;;;;;;;6123749;23;20022;-68
2022/11/21 01:19:40;;;;;;;0.10;0.10;;;;;;;;;;6123364;23;20538;-68
2022/11/21 01:22:09;;;;;;;0.10;0.10;;;;;;;;;;6123408;23;20026;-69
2022/11/21 01:24:37;;;;;;;0.10;0.10;;;;;;;;;;6123646;23;20317;-69
2022/11/21 01:27:05;;;;;;;0.20;0.20;;;;;;;;;;6123834;23;20025;-70
2022/11/21 01:29:35;;;;;;;0.10;0.10;;;;;;;;;;6122409;23;20033;-68
2022/11/21 01:32:03;;;;;;;0.38;0.30;;;;;;;;;;6121576;23;20026;-68
2022/11/21 01:34:32;;;;;;;0.20;0.20;;;;;;;;;;6123137;23;20028;-69
2022/11/21 01:37:01;;;;;;;0.20;0.20;;;;;;;;;;6124005;23;20092;-69
2022/11/21 01:39:29;;;;;;;0.10;0.10;;;;;;;;;;6114805;23;20389;-69
2022/11/21 01:41:57;;;;;;;0.10;0.10;;;;;;;;;;6093544;23;20027;-68
2022/11/21 01:44:26;;;;;;;0.30;0.10;;;;;;;;;;6094035;23;20339;-69
2022/11/21 01:46:57;;;;;;;0.20;0.20;;;;;;;;;;6094315;23;20363;-69
2022/11/21 01:49:26;;;;;;;0.20;0.20;;;;;;;;;;6091262;23;20015;-68
2022/11/21 01:51:57;;;;;;;0.35;0.32;;;;;;;;;;6095205;23;20050;-68
2022/11/21 01:54:28;;;;;;;0.10;0.10;;;;;;;;;;6094298;23;20025;-69
2022/11/21 01:57:00;;;;;;;0.45;0.25;;;;;;;;;;6094934;23;20030;-68
2022/11/21 01:59:30;;;;;;;0.10;0.10;;;;;;;;;;6090883;23;20027;-69
2022/11/21 02:02:02;;;;;;;0.10;0.10;;;;;;;;;;6095057;23;20207;-68
2022/11/21 02:04:31;;;;;;;0.45;0.40;;;;;;;;;;6093666;23;20114;-68
2022/11/21 02:07:00;;;;;;;0.93;0.52;;;;;;;;;;6094797;23;20105;-68
2022/11/21 02:09:30;;;;;;;1.65;0.20;;;;;;;;;;6092580;23;20065;-68
2022/11/21 02:12:00;;;;;;;0.20;0.20;;;;;;;;;;6094142;23;20019;-69
2022/11/21 02:14:29;;;;;;;0.10;0.10;;;;;;;;;;6092056;23;20022;-68
2022/11/21 02:16:59;;;;;;;0.10;0.10;;;;;;;;;;6093759;23;20475;-69
2022/11/21 02:19:34;;;;;;;1.23;0.47;;;;;;;;;;6093457;23;20041;-70
2022/11/21 02:22:06;;;;;;;0.10;0.10;;;;;;;;;;6094422;23;20041;-69
2022/11/21 02:24:36;;;;;;;0.10;0.10;;;;;;;;;;6092988;23;20030;-69
2022/11/21 02:27:06;;;;;;;0.20;0.20;;;;;;;;;;6095372;23;20030;-69
2022/11/21 02:29:34;;;;;;;0.20;0.20;;;;;;;;;;6091890;23;20023;-68
2022/11/21 02:32:04;;;;;;;0.10;0.10;;;;;;;;;;6094392;23;20022;-68
2022/11/21 02:34:32;;;;;;;0.15;0.15;;;;;;;;;;6094628;23;20019;-69
2022/11/21 02:37:02;;;;;;;0.20;0.20;;;;;;;;;;6095822;23;20022;-68
2022/11/21 02:39:33;;;;;;;0.10;0.10;;;;;;;;;;6097238;23;20030;-68
2022/11/21 02:42:06;;;;;;;0.10;0.10;;;;;;;;;;6125767;23;20036;-69
2022/11/21 02:44:38;;;;;;;0.15;0.15;;;;;;;;;;6124430;23;20026;-68
2022/11/21 02:47:06;;;;;;;0.00;0.00;;;;;;;;;;6123545;23;20086;-69
2022/11/21 02:49:38;;;;;;;0.10;0.10;;;;;;;;;;6123512;23;20030;-68
2022/11/21 02:52:07;;;;;;;0.10;0.10;;;;;;;;;;6125307;23;20021;-68
2022/11/21 02:54:35;;;;;;;0.13;0.13;;;;;;;;;;6123590;23;20026;-68
2022/11/21 02:57:03;;;;;;;0.10;0.10;;;;;;;;;;6125539;23;20025;-68
2022/11/21 02:59:31;;;;;;;0.10;0.10;;;;;;;;;;6123932;23;20526;-68
2022/11/21 03:02:01;;;;;;;0.32;0.32;;;;;;;;;;6124581;23;20033;-68
2022/11/21 03:04:29;;;;;;;0.10;0.10;;;;;;;;;;6122677;23;20497;-68
2022/11/21 03:06:58;;;;;;;0.20;0.20;;;;;;;;;;6125578;23;20022;-68
2022/11/21 03:09:26;;;;;;;0.30;0.20;;;;;;;;;;6123387;23;20038;-69
2022/11/21 03:11:55;;;;;;;0.10;0.10;;;;;;;;;;6124444;23;20350;-68
2022/11/21 03:14:24;;;;;;;0.10;0.10;;;;;;;;;;6123881;23;20022;-68
2022/11/21 03:16:53;;;;;;;0.20;0.20;;;;;;;;;;6124248;23;20455;-70
2022/11/21 03:19:22;;;;;;;0.30;0.30;;;;;;;;;;6124615;23;20096;-68
2022/11/21 03:21:51;;;;;;;0.10;0.10;;;;;;;;;;6125114;23;20479;-68
2022/11/21 03:24:19;;;;;;;0.10;0.10;;;;;;;;;;6122432;23;20025;-69
2022/11/21 03:26:47;;;;;;;0.13;0.13;;;;;;;;;;6125397;23;20101;-69
2022/11/21 03:29:15;;;;;;;0.10;0.10;;;;;;;;;;6123721;23;20463;-68
2022/11/21 03:31:44;;;;;;;0.10;0.10;;;;;;;;;;6124696;23;20017;-69
2022/11/21 03:34:12;;;;;;;0.10;0.10;;;;;;;;;;6120245;23;20030;-69
2022/11/21 03:36:42;;;;;;;0.13;0.10;;;;;;;;;;6122879;23;20463;-68
2022/11/21 03:39:10;;;;;;;0.43;0.35;;;;;;;;;;6123326;23;20029;-68
2022/11/21 03:41:38;;;;;;;0.10;0.10;;;;;;;;;;6123930;23;20022;-69
2022/11/21 03:44:08;;;;;;;0.17;0.17;;;;;;;;;;6122750;23;20018;-68
2022/11/21 03:46:37;;;;;;;0.57;0.57;;;;;;;;;;6123257;23;20036;-68
2022/11/21 03:49:06;;;;;;;0.10;0.10;;;;;;;;;;6121038;23;20017;-68
2022/11/21 03:51:35;;;;;;;0.10;0.10;;;;;;;;;;6123990;23;20028;-68
2022/11/21 03:54:05;;;;;;;0.10;0.10;;;;;;;;;;6123187;23;20022;-68
2022/11/21 03:56:33;;;;;;;0.10;0.10;;;;;;;;;;6123112;23;20081;-69
2022/11/21 03:59:01;;;;;;;0.10;0.10;;;;;;;;;;6121274;23;20026;-69
2022/11/21 04:01:30;;;;;;;0.20;0.20;;;;;;;;;;6122523;23;20018;-69
2022/11/21 04:04:03;;;;;;;0.00;0.00;;;;;;;;;;6122597;23;20093;-68
2022/11/21 04:06:32;;;;;;;0.38;0.20;;;;;;;;;;6123499;23;20445;-70
2022/11/21 04:09:00;;;;;;;0.20;0.20;;;;;;;;;;6121762;23;20442;-68
2022/11/21 04:11:30;;;;;;;0.20;0.20;;;;;;;;;;6123871;23;20026;-68
2022/11/21 04:13:58;;;;;;;0.10;0.10;;;;;;;;;;6123362;23;20089;-68
2022/11/21 04:16:26;;;;;;;2.05;0.40;;;;;;;;;;6123893;23;20018;-69
2022/11/21 04:18:54;;;;;;;0.10;0.10;;;;;;;;;;6121912;23;20026;-70
2022/11/21 04:21:23;;;;;;;0.98;0.55;;;;;;;;;;6122322;23;20048;-68
2022/11/21 04:23:51;;;;;;;0.20;0.20;;;;;;;;;;6122674;23;20451;-69
2022/11/21 04:26:19;;;;;;;0.10;0.10;;;;;;;;;;6123730;23;20026;-69
2022/11/21 04:28:49;;;;;;;0.63;0.30;;;;;;;;;;6123438;23;20033;-68
2022/11/21 04:31:17;;;;;;;1.38;0.40;;;;;;;;;;6123128;23;20022;-69
2022/11/21 04:33:45;;;;;;;0.10;0.10;;;;;;;;;;6120855;23;20022;-69
2022/11/21 04:36:14;;;;;;;0.15;0.15;;;;;;;;;;6123794;23;20026;-69
2022/11/21 04:38:42;;;;;;;2.58;0.82;;;;;;;;;;6123383;23;20036;-69
2022/11/21 04:41:11;;;;;;;3.85;0.40;;;;;;;;;;6121978;23;20073;-69
2022/11/21 04:43:39;;;;;;;0.30;0.30;;;;;;;;;;6123162;23;20452;-69
2022/11/21 04:46:09;;;;;;;0.17;0.17;;;;;;;;;;6121475;23;20490;-71
2022/11/21 04:48:37;;;;;;;0.10;0.10;;;;;;;;;;6123669;23;20018;-68
2022/11/21 04:51:05;;;;;;;0.10;0.10;;;;;;;;;;6121236;23;20018;-69
2022/11/21 04:53:34;;;;;;;0.10;0.10;;;;;;;;;;6122913;23;20026;-69
2022/11/21 04:56:09;;;;;;;0.13;0.13;;;;;;;;;;6123512;23;20066;-70
2022/11/21 04:58:38;;;;;;;0.20;0.20;;;;;;;;;;6123146;23;20036;-69
2022/11/21 05:01:08;;;;;;;0.50;0.50;;;;;;;;;;6123010;23;20018;-69
2022/11/21 05:03:37;;;;;;;0.15;0.15;;;;;;;;;;6122893;23;20455;-71
2022/11/21 05:06:05;;;;;;;0.17;0.17;;;;;;;;;;6123289;23;20339;-69
2022/11/21 05:08:33;;;;;;;0.20;0.20;;;;;;;;;;6124030;23;20146;-69
2022/11/21 05:13:48;;;;;;;0.10;0.10;;;;;;;;;;6123502;23;20022;-70
2022/11/21 05:16:17;;;;;;;0.20;0.20;;;;;;;;;;6123252;23;20022;-70
2022/11/21 05:18:46;;;;;;;0.82;0.82;;;;;;;;;;6122827;23;20041;-69
2022/11/21 05:21:14;;;;;;;0.10;0.10;;;;;;;;;;6122538;23;20026;-71
2022/11/21 05:23:42;;;;;;;0.20;0.20;;;;;;;;;;6123075;23;20447;-69
2022/11/21 05:26:11;;;;;;;0.10;0.10;;;;;;;;;;6123018;23;20071;-69
2022/11/21 05:28:39;;;;;;;0.30;0.30;;;;;;;;;;6122371;23;20387;-69
2022/11/21 05:31:07;;;;;;;0.38;0.20;;;;;;;;;;6121016;23;20030;-70
2022/11/21 05:33:37;;;;;;;6.13;0.40;;;;;;;;;;6123173;23;20018;-69
2022/11/21 05:36:05;;;;;;;0.10;0.10;;;;;;;;;;6120582;23;20026;-69
2022/11/21 05:38:34;;;;;;;0.10;0.10;;;;;;;;;;6122440;23;20022;-69
2022/11/21 05:41:02;;;;;;;0.40;0.40;;;;;;;;;;6122133;23;20028;-69
2022/11/21 05:43:46;;;;;;;0.20;0.20;;;;;;;;;;6121583;23;20053;-70
2022/11/21 05:46:14;;;;;;;0.10;0.10;;;;;;;;;;6122151;23;20029;-70
2022/11/21 05:48:44;;;;;;;0.13;0.13;;;;;;;;;;6121423;23;20029;-70
2022/11/21 05:51:13;;;;;;;0.20;0.20;;;;;;;;;;6119095;23;20037;-69
2022/11/21 05:53:41;;;;;;;0.32;0.25;;;;;;;;;;6122299;23;20018;-70
2022/11/21 05:56:11;;;;;;;0.80;0.45;;;;;;;;;;6121827;23;20026;-70
2022/11/21 05:58:39;;;;;;;0.20;0.20;;;;;;;;;;6123690;23;20104;-70
2022/11/21 06:01:09;;;;;;;0.28;0.28;;;;;;;;;;6120520;23;20083;-69
2022/11/21 06:03:37;;;;;;;0.10;0.10;;;;;;;;;;6119163;23;20029;-69
2022/11/21 06:06:08;;;;;;;0.75;0.43;;;;;;;;;;6118352;23;20447;-69
2022/11/21 06:08:37;;;;;;;0.10;0.10;;;;;;;;;;6123768;23;20045;-70
2022/11/21 06:11:06;;;;;;;0.20;0.20;;;;;;;;;;6122411;23;20078;-69
2022/11/21 06:13:35;;;;;;;0.68;0.40;;;;;;;;;;6119188;23;20025;-70
2022/11/21 06:16:05;;;;;;;0.10;0.10;;;;;;;;;;6121110;23;20022;-69
2022/11/21 06:18:34;;;;;;;0.55;0.25;;;;;;;;;;6125690;23;20033;-71
2022/11/21 06:21:02;;;;;;;0.10;0.10;;;;;;;;;;6122812;23;20057;-70
2022/11/21 06:23:32;;;;;;;0.10;0.10;;;;;;;;;;6125761;23;20030;-69
2022/11/21 06:26:01;;;;;;;0.10;0.10;;;;;;;;;;6124681;23;20028;-69
2022/11/21 06:28:32;;;;;;;0.52;0.47;;;;;;;;;;6122833;23;20033;-69
2022/11/21 06:31:03;;;;;;;0.10;0.10;;;;;;;;;;6120124;23;20049;-70
2022/11/21 06:33:31;;;;;;;0.20;0.20;;;;;;;;;;6124088;23;20028;-69
2022/11/21 06:36:02;;;;;;;0.20;0.20;;;;;;;;;;6123873;23;20018;-72
2022/11/21 06:38:30;;;;;;;0.10;0.10;;;;;;;;;;6124695;23;20018;-69
2022/11/21 06:41:03;;;;;;;0.10;0.10;;;;;;;;;;6122599;23;20109;-69
2022/11/21 06:43:32;;;;;;;0.10;0.10;;;;;;;;;;6124339;23;20037;-69
2022/11/21 06:46:02;;;;;;;0.30;0.30;;;;;;;;;;6124967;23;20025;-70
2022/11/21 06:48:30;;;;;;;0.20;0.20;;;;;;;;;;6123843;23;20026;-70
2022/11/21 06:50:59;;;;;;;0.10;0.10;;;;;;;;;;6120893;23;20073;-70
2022/11/21 06:53:27;;;;;;;0.10;0.10;;;;;;;;;;6118068;23;20026;-69
2022/11/21 06:55:59;;;;;;;0.10;0.10;;;;;;;;;;6121495;23;20022;-69
2022/11/21 06:58:29;;;;;;;1.35;0.30;;;;;;;;;;6122647;23;20487;-69
2022/11/21 07:00:58;;;;;;;1.30;0.40;;;;;;;;;;6122635;23;20033;-69
2022/11/21 07:03:26;;;;;;;0.35;0.35;;;;;;;;;;6123428;23;20018;-70
2022/11/21 07:05:58;;;;;;;0.10;0.10;;;;;;;;;;6124045;23;20061;-69
2022/11/21 07:08:27;;;;;;;0.45;0.30;;;;;;;;;;6126315;23;20033;-69
2022/11/21 07:10:55;;;;;;;0.10;0.10;;;;;;;;;;6124685;23;20049;-69
2022/11/21 07:13:45;;;;;;;0.17;0.17;;;;;;;;;;6125561;23;20110;-69
2022/11/21 07:16:14;;;;;;;0.20;0.20;;;;;;;;;;6124779;23;20030;-69
2022/11/21 07:18:44;;;;;;;0.40;0.30;;;;;;;;;;6124421;23;20022;-69
2022/11/21 07:21:13;;;;;;;0.73;0.73;;;;;;;;;;6124987;23;20018;-69
2022/11/21 07:23:42;;;;;;;0.10;0.10;;;;;;;;;;6124870;23;20105;-69
2022/11/21 07:26:11;;;;;;;0.10;0.10;;;;;;;;;;6125104;23;20028;-69
2022/11/21 07:28:39;;;;;;;0.10;0.10;;;;;;;;;;6123529;23;20053;-69
2022/11/21 07:31:11;;;;;;;0.20;0.20;;;;;;;;;;6121291;23;20466;-68
2022/11/21 07:33:43;;;;;;;0.15;0.15;;;;;;;;;;6124307;23;20085;-68
2022/11/21 07:36:11;;;;;;;0.10;0.10;;;;;;;;;;6123368;23;20030;-69
2022/11/21 07:38:41;;;;;;;0.10;0.10;;;;;;;;;;6125027;23;20026;-68
2022/11/21 07:41:10;;;;;;;0.10;0.10;;;;;;;;;;6124256;23;20030;-68
2022/11/21 07:43:38;;;;;;;0.40;0.40;;;;;;;;;;6121029;23;20045;-69
2022/11/21 07:46:07;;;;;;;0.10;0.10;;;;;;;;;;6122830;23;20030;-69
2022/11/21 07:48:37;;;;;;;0.10;0.10;;;;;;;;;;6122471;23;20079;-69
2022/11/21 07:51:06;;;;;;;0.20;0.20;;;;;;;;;;6120051;23;20021;-69
2022/11/21 07:53:35;;;;;;;0.20;0.20;;;;;;;;;;6110156;23;20040;-71
2022/11/21 07:56:03;;;;;;;0.10;0.10;;;;;;;;;;6122120;23;20050;-69
2022/11/21 07:58:32;;;;;;;0.22;0.22;;;;;;;;;;6120442;23;20054;-70
2022/11/21 08:01:04;;;;;;;0.10;0.10;;;;;;;;;;6120859;23;20108;-69
2022/11/21 08:03:32;;;;;;;0.10;0.10;;;;;;;;;;6120599;23;20419;-68
2022/11/21 08:06:03;;;;;;;0.10;0.10;;;;;;;;;;6123810;23;20054;-69
2022/11/21 08:08:32;;;;;;;0.10;0.10;;;;;;;;;;6123323;23;20369;-69
2022/11/21 08:11:04;;;;;;;0.10;0.10;;;;;;;;;;6123427;23;20448;-68
2022/11/21 08:13:33;;;;;;;0.20;0.20;;;;;;;;;;6124611;23;20018;-68
2022/11/21 08:16:02;;;;;;;0.10;0.10;;;;;;;;;;6124198;23;20037;-69
2022/11/21 08:18:31;;;;;;;0.28;0.28;;;;;;;;;;6123771;23;20356;-69
2022/11/21 08:21:03;;;;;;;0.20;0.20;;;;;;;;;;6123022;23;20033;-69
2022/11/21 08:23:32;;;;;;;0.47;0.47;;;;;;;;;;6121747;23;20030;-69
2022/11/21 08:26:00;;;;;;;0.60;0.45;;;;;;;;;;6122369;23;20380;-70
2022/11/21 08:28:29;;;;;;;1.27;1.17;;;;;;;;;;6122685;23;20054;-68
2022/11/21 08:30:58;;;;;;;3.47;1.15;;;;;;;;;;6121899;23;20018;-68
2022/11/21 08:33:26;;;;;;;3.15;0.70;;;;;;;;;;6122640;23;20420;-68
2022/11/21 08:35:55;;;;;;;0.38;0.38;;;;;;;;;;6121938;23;20026;-69
2022/11/21 08:38:25;;;;;;;0.20;0.20;;;;;;;;;;6123148;23;20022;-69
2022/11/21 08:43:43;;;;;;;0.17;0.17;;;;;;;;;;6122503;23;20093;-68
2022/11/21 08:46:11;;;;;;;0.10;0.10;;;;;;;;;;6123867;23;20395;-68
2022/11/21 08:48:40;;;;;;;0.30;0.30;;;;;;;;;;6123456;23;20460;-68
2022/11/21 08:51:08;;;;;;;0.20;0.20;;;;;;;;;;6122215;23;20030;-68
2022/11/21 08:53:38;;;;;;;1.70;0.40;;;;;;;;;;6122775;23;20030;-70
2022/11/21 08:56:07;;;;;;;0.10;0.10;;;;;;;;;;6123968;23;20036;-68
2022/11/21 08:58:35;;;;;;;0.20;0.20;;;;;;;;;;6121608;23;20121;-69
2022/11/21 09:01:04;;;;;;;0.65;0.65;;;;;;;;;;6121461;23;20022;-68
2022/11/21 09:03:32;;;;;;;0.60;0.35;;;;;;;;;;6122922;23;20022;-68
2022/11/21 09:06:01;;;;;;;0.10;0.10;;;;;;;;;;6121635;23;20379;-67
2022/11/21 09:08:30;;;;;;;0.10;0.10;;;;;;;;;;6122925;23;20017;-70
2022/11/21 09:11:04;;;;;;;0.30;0.30;;;;;;;;;;6121110;23;20037;-68
2022/11/21 09:13:33;;;;;;;0.70;0.70;;;;;;;;;;6123047;23;20049;-69
2022/11/21 09:18:48;;;;;;;0.10;0.10;;;;;;;;;;6123275;23;20022;-69
2022/11/21 09:21:18;;;;;;;0.10;0.10;;;;;;;;;;6118308;23;20090;-69
2022/11/21 09:23:47;;;;;;;0.10;0.10;;;;;;;;;;6120681;23;20081;-70
2022/11/21 09:26:17;;;;;;;0.10;0.10;;;;;;;;;;6121539;23;20022;-69
2022/11/21 09:28:46;;;;;;;3.60;0.45;;;;;;;;;;6122626;23;20530;-70
2022/11/21 09:31:14;;;;;;;0.30;0.30;;;;;;;;;;6121864;23;20060;-69
2022/11/21 09:33:43;;;;;;;0.10;0.10;;;;;;;;;;6123311;23;20093;-68
2022/11/21 09:36:12;;;;;;;0.20;0.20;;;;;;;;;;6123515;23;20026;-69
2022/11/21 09:38:41;;;;;;;0.30;0.30;;;;;;;;;;6123782;23;20359;-70
2022/11/21 09:41:50;;;;;;;0.57;0.57;;;;;;;;;;6120607;23;20080;-69
2022/11/21 09:44:07;;;;;;;0.10;0.10;;;;;;;;;;6125854;23;20022;-68
2022/11/21 09:46:38;;;;;;;3.45;0.28;;;;;;;;;;6126754;23;20085;-69
2022/11/21 09:49:10;;;;;;;0.20;0.20;;;;;;;;;;6123846;23;20025;-69
2022/11/21 09:51:41;;;;;;;0.17;0.17;;;;;;;;;;6123969;23;20025;-69
2022/11/21 09:54:15;;;;;;;0.30;0.30;;;;;;;;;;6126282;23;20033;-69
2022/11/21 09:56:44;;;;;;;0.15;0.15;;;;;;;;;;6127278;23;20021;-69
2022/11/21 09:59:26;;;;;;;0.10;0.10;;;;;;;;;;6125925;23;20069;-69
2022/11/21 10:01:55;;;;;;;0.40;0.28;;;;;;;;;;6126135;23;20055;-69
2022/11/21 10:04:23;;;;;;;0.63;0.63;;;;;;;;;;6123857;23;20056;-68
2022/11/21 10:06:55;;;;;;;0.10;0.10;;;;;;;;;;6127078;23;20017;-71
2022/11/21 10:09:27;;;;;;;0.60;0.30;;;;;;;;;;6125581;23;20427;-69
2022/11/21 10:15:05;;;;;;;0.22;0.22;;;;;;;;;;6126157;23;20105;-69
2022/11/21 10:17:40;;;;;;;0.20;0.20;;;;;;;;;;6123649;23;20075;-69
2022/11/21 10:20:09;;;;;;;;;;;;;;;;;;6123826;23;20421;-69
2022/11/21 10:22:50;;;;;;;0.93;0.22;;;;;;;;;;6126423;23;20327;-69
2022/11/21 10:25:23;;;;;;;0.20;0.20;;;;;;;;;;6126763;23;20105;-69
2022/11/21 10:27:56;;;;;;;0.13;0.13;;;;;;;;;;6126223;23;20018;-69
2022/11/21 10:30:28;;;;;;;0.28;0.28;;;;;;;;;;6124142;23;20489;-69
2022/11/21 10:32:59;;;;;;;1.23;0.20;;;;;;;;;;6126691;23;20415;-69
2022/11/21 10:35:31;;;;;;;0.40;0.32;;;;;;;;;;6125782;23;20532;-69
2022/11/21 10:38:01;;;;;;;1.77;0.40;;;;;;;;;;6126730;23;20094;-69
2022/11/21 10:40:36;;;;;;;0.10;0.10;;;;;;;;;;6124690;23;20032;-69
2022/11/21 10:45:52;;;;;;;0.52;0.17;;;;;;;;;;6125490;23;20018;-68
2022/11/21 10:48:20;;;;;;;0.10;0.10;;;;;;;;;;6126654;23;20101;-70
2022/11/21 10:51:05;;;;;;;1.60;0.43;;;;;;;;;;6123525;23;20140;-69
2022/11/21 10:56:21;;;;;;;0.10;0.10;;;;;;;;;;6125176;23;20053;-69
2022/11/21 10:58:51;;;;;;;0.30;0.20;;;;;;;;;;6124788;23;20077;-69
2022/11/21 11:01:23;;;;;;;3.50;0.40;;;;;;;;;;6124282;23;20018;-70
2022/11/21 11:04:09;;;;;;;0.20;0.20;;;;;;;;;;6124747;23;20033;-69
2022/11/21 11:06:56;;;;;;;0.20;0.20;;;;;;;;;;6117453;23;20085;-69
2022/11/21 11:09:27;;;;;;;0.13;0.13;;;;;;;;;;6124330;23;20022;-69
2022/11/21 11:12:18;;;;;;;2.83;0.30;;;;;;;;;;6124492;23;20048;-69
2022/11/21 11:14:50;;;;;;;0.10;0.10;;;;;;;;;;6124619;23;20468;-70
2022/11/21 11:17:28;;;;;;;1.15;0.32;;;;;;;;;;6124915;23;20022;-70
2022/11/21 11:20:01;;;;;;;1.63;0.52;;;;;;;;;;6124023;23;20117;-69
2022/11/21 11:22:30;;;;;;;1.50;0.85;;;;;;;;;;6124239;23;20026;-69
2022/11/21 11:24:59;;;;;;;0.15;0.15;;;;;;;;;;6123990;23;20459;-70
2022/11/21 11:27:29;;;;;;;0.10;0.10;;;;;;;;;;6123149;23;20243;-70
2022/11/21 11:29:57;;;;;;;0.13;0.13;;;;;;;;;;6122786;23;20034;-70
2022/11/21 11:32:26;;;;;;;0.10;0.10;;;;;;;;;;6122922;23;20463;-71
2022/11/21 11:35:00;;;;;;;0.20;0.20;;;;;;;;;;6125020;23;20486;-70
2022/11/21 11:37:33;;;;;;;1.15;0.40;;;;;;;;;;6124633;23;20479;-69
2022/11/21 11:40:16;;;;;;;0.10;0.10;;;;;;;;;;6123778;23;20022;-70
2022/11/21 11:48:40;;;;;;;0.10;0.10;;;;;;;;;;6123101;23;20516;-69
2022/11/21 11:51:32;;;;;;;1.23;0.57;;;;;;;;;;6097944;23;20104;-69
2022/11/21 11:54:03;;;;;;;0.10;0.10;;;;;;;;;;6124799;23;20462;-71
2022/11/21 11:56:35;;;;;;;0.10;0.10;;;;;;;;;;6124312;23;20617;-69
2022/11/21 11:59:08;;;;;;;6.40;0.32;;;;;;;;;;6123752;23;20057;-69
2022/11/21 12:01:39;;;;;;;0.00;0.00;;;;;;;;;;6124140;23;20022;-70
2022/11/21 12:04:12;;;;;;;2.25;0.20;;;;;;;;;;6122491;23;20081;-70
2022/11/21 12:06:45;;;;;;;0.57;0.32;;;;;;;;;;6122230;23;20069;-69
2022/11/21 12:09:38;;;;;;;0.35;0.17;;;;;;;;;;6123429;23;20029;-69
2022/11/21 12:12:11;;;;;;;1.67;0.30;;;;;;;;;;6124351;23;20105;-69
2022/11/21 12:17:34;;;;;;;0.57;0.57;;;;;;;;;;6124442;23;20022;-69
2022/11/21 12:20:06;;;;;;;1.13;0.50;;;;;;;;;;6123441;23;20439;-69
2022/11/21 12:22:35;;;;;;;0.85;0.25;;;;;;;;;;6123903;23;20336;-69
2022/11/21 12:25:04;;;;;;;0.20;0.17;;;;;;;;;;6122941;23;20092;-69
2022/11/21 12:27:33;;;;;;;2.17;0.28;;;;;;;;;;6122546;23;20459;-69
2022/11/21 12:30:14;;;;;;;3.10;0.35;;;;;;;;;;6122165;23;20026;-69
2022/11/21 12:32:54;;;;;;;2.45;0.20;;;;;;;;;;6122956;23;20352;-69
2022/11/21 12:35:28;;;;;;;0.10;0.10;;;;;;;;;;6123944;23;20057;-69
2022/11/21 12:38:04;;;;;;;0.30;0.30;;;;;;;;;;6121496;23;20026;-69
2022/11/21 12:40:39;;;;;;;5.35;0.30;;;;;;;;;;6122833;23;20029;-69
2022/11/21 12:43:10;;;;;;;0.35;0.30;;;;;;;;;;6122600;23;20029;-69
2022/11/21 12:45:40;;;;;;;1.40;0.50;;;;;;;;;;6123794;23;20339;-69
2022/11/21 12:56:56;;;;;;;0.10;0.10;;;;;;;;;;6124487;23;20037;-69
2022/11/21 12:59:25;;;;;;;0.20;0.20;;;;;;;;;;6121696;23;20021;-69
2022/11/21 13:01:58;;;;;;;1.08;0.30;;;;;;;;;;6123029;23;20049;-70
2022/11/21 13:04:29;;;;;;;0.10;0.10;;;;;;;;;;6123106;23;20447;-70
2022/11/21 13:06:58;;;;;;;1.48;0.77;;;;;;;;;;6123479;23;20022;-70
2022/11/21 13:09:30;;;;;;;0.88;0.15;;;;;;;;;;6122220;23;20344;-70
2022/11/21 13:12:04;;;;;;;0.10;0.10;;;;;;;;;;6119514;23;20056;-69
2022/11/21 13:14:38;;;;;;;0.13;0.13;;;;;;;;;;6121245;23;20428;-69
2022/11/21 13:17:15;;;;;;;0.10;0.10;;;;;;;;;;6121086;23;20081;-69
2022/11/21 13:19:46;;;;;;;0.10;0.10;;;;;;;;;;6117328;23;20026;-69
2022/11/21 13:22:35;;;;;;;1.67;0.77;;;;;;;;;;6119108;23;20097;-69
2022/11/21 13:25:10;;;;;;;2.40;0.30;;;;;;;;;;6084961;23;20447;-69
2022/11/21 13:27:39;;;;;;;0.10;0.10;;;;;;;;;;6119833;23;20052;-70
2022/11/21 13:30:21;;;;;;;0.10;0.10;;;;;;;;;;6116942;23;20022;-70
2022/11/21 13:32:51;;;;;;;0.10;0.10;;;;;;;;;;6121693;23;20057;-70
2022/11/21 13:35:38;;;;;;;0.38;0.20;;;;;;;;;;6122510;23;20029;-70
2022/11/21 13:38:07;;;;;;;0.22;0.22;;;;;;;;;;6122051;23;20456;-70
2022/11/21 13:40:38;;;;;;;0.20;0.20;;;;;;;;;;6120688;23;20037;-70
2022/11/21 13:43:23;;;;;;;0.13;0.13;;;;;;;;;;6121966;23;20081;-70
2022/11/21 13:46:01;;;;;;;0.30;0.30;;;;;;;;;;6122299;23;20482;-70
2022/11/21 13:48:49;;;;;;;0.17;0.17;;;;;;;;;;6123274;23;20022;-70
2022/11/21 13:51:33;;;;;;;0.43;0.17;;;;;;;;;;6121335;23;20026;-70
2022/11/21 13:54:31;;;;;;;0.47;0.43;;;;;;;;;;6121142;23;20026;-70
2022/11/21 13:57:06;;;;;;;0.45;0.45;;;;;;;;;;6121470;23;20053;-70
2022/11/21 13:59:42;;;;;;;3.83;0.25;;;;;;;;;;6121027;23;20456;-70
2022/11/21 14:02:27;;;;;;;0.22;0.22;;;;;;;;;;6122521;23;20564;-70
2022/11/21 14:05:14;;;;;;;1.55;0.30;;;;;;;;;;6120985;23;20104;-70
2022/11/21 14:07:43;;;;;;;0.10;0.10;;;;;;;;;;6121495;23;20025;-69
2022/11/21 14:10:20;;;;;;;0.20;0.20;;;;;;;;;;6121980;23;20511;-70
2022/11/21 14:12:50;;;;;;;1.00;0.47;;;;;;;;;;6119822;23;20029;-70
2022/11/21 14:15:25;;;;;;;0.10;0.10;;;;;;;;;;6120160;23;20025;-69
2022/11/21 14:17:55;;;;;;;0.28;0.28;;;;;;;;;;6121821;23;20337;-70
2022/11/21 14:20:24;;;;;;;0.50;0.50;;;;;;;;;;6120315;23;20022;-69
2022/11/21 14:22:58;;;;;;;0.20;0.20;;;;;;;;;;6121492;23;20404;-69
2022/11/21 14:25:30;;;;;;;0.10;0.10;;;;;;;;;;6120053;23;20565;-69
2022/11/21 14:28:01;;;;;;;0.10;0.10;;;;;;;;;;6120683;23;20467;-70
2022/11/21 14:30:30;;;;;;;1.55;0.35;;;;;;;;;;6123100;23;20033;-70
2022/11/21 14:33:13;;;;;;;0.10;0.10;;;;;;;;;;6123768;23;20422;-70
2022/11/21 14:35:42;;;;;;;0.17;0.17;;;;;;;;;;6123806;23;20074;-69
2022/11/21 14:38:12;;;;;;;0.30;0.20;;;;;;;;;;6124516;23;20026;-70
2022/11/21 14:40:41;;;;;;;0.20;0.20;;;;;;;;;;6123590;23;20033;-69
2022/11/21 14:43:27;;;;;;;0.10;0.10;;;;;;;;;;6125343;23;20033;-69
2022/11/21 14:45:56;;;;;;;1.30;0.15;;;;;;;;;;6123600;23;20100;-69
2022/11/21 14:48:28;;;;;;;0.20;0.20;;;;;;;;;;6123093;23;20053;-70
2022/11/21 14:50:57;;;;;;;0.15;0.15;;;;;;;;;;6123473;23;20522;-70
2022/11/21 14:53:26;;;;;;;0.20;0.20;;;;;;;;;;6125077;23;20044;-69
2022/11/21 14:55:55;;;;;;;0.20;0.20;;;;;;;;;;6123698;23;20029;-69
2022/11/21 14:58:30;;;;;;;0.10;0.10;;;;;;;;;;6124307;23;20026;-69
2022/11/21 15:01:02;;;;;;;0.15;0.15;;;;;;;;;;6122057;23;20034;-70
2022/11/21 15:03:31;;;;;;;0.10;0.10;;;;;;;;;;6124709;23;20018;-70
2022/11/21 15:05:59;;;;;;;3.85;1.30;;;;;;;;;;6123570;23;20610;-69
2022/11/21 15:08:33;;;;;;;3.00;0.20;;;;;;;;;;6124142;23;20359;-69
2022/11/21 15:11:23;;;;;;;0.13;0.13;;;;;;;;;;6122339;23;20093;-70
2022/11/21 15:13:57;;;;;;;2.03;0.20;;;;;;;;;;6124049;23;20049;-70
2022/11/21 15:16:43;;;;;;;0.55;0.20;;;;;;;;;;6122540;23;20034;-70
2022/11/21 15:19:11;;;;;;;0.10;0.10;;;;;;;;;;6123083;23;20105;-70
2022/11/21 15:21:44;;;;;;;0.10;0.10;;;;;;;;;;6121805;23;20026;-70
2022/11/21 15:24:17;;;;;;;0.30;0.30;;;;;;;;;;6124572;23;20021;-70
2022/11/21 15:26:45;;;;;;;0.10;0.10;;;;;;;;;;6124465;23;20026;-69
2022/11/21 15:29:22;;;;;;;0.28;0.20;;;;;;;;;;6123209;23;20064;-70
2022/11/21 15:32:06;;;;;;;0.47;0.38;;;;;;;;;;6124132;23;20340;-70
2022/11/21 15:34:34;;;;;;;1.10;0.38;;;;;;;;;;6109882;23;20022;-69
2022/11/21 15:37:07;;;;;;;0.70;0.57;;;;;;;;;;6123110;23;20022;-70
2022/11/21 15:39:36;;;;;;;0.35;0.35;;;;;;;;;;6122972;23;20093;-70